Time;durP1;ratioP1;P1;durP2;ratioP2;P2;SDS_P1;SDS_P2;PMS_P1;PMS_P2;Temp;Humidity;BMP_temperature;BMP_pressure;BME280_temperature;BME280_humidity;BME280_pressure;Samples;Min_cycle;Max_cycle;Signal;HPM_P1;HPM_P2
2022/05/17 00:01:41;;;;;;;4.93;1.30;;;23.40;99.90;;;;;;5095167;28;20694;-74
2022/05/17 00:04:08;;;;;;;1.58;1.08;;;23.40;99.90;;;;;;5095265;28;20627;-74
2022/05/17 00:06:35;;;;;;;2.85;0.82;;;23.40;99.90;;;;;;5095285;28;20234;-74
2022/05/17 00:09:04;;;;;;;1.05;1.00;;;23.40;99.90;;;;;;5094994;28;20720;-74
2022/05/17 00:11:31;;;;;;;4.07;1.10;;;23.40;99.90;;;;;;5095263;28;20218;-74
2022/05/17 00:13:58;;;;;;;1.00;1.00;;;23.40;99.90;;;;;;5095114;28;20300;-74
2022/05/17 00:16:26;;;;;;;1.20;1.20;;;23.40;99.90;;;;;;5095139;28;20220;-74
2022/05/17 00:18:53;;;;;;;2.28;1.20;;;23.40;99.90;;;;;;5094812;28;20586;-74
2022/05/17 00:21:20;;;;;;;5.32;1.10;;;23.40;99.90;;;;;;5095092;28;20257;-74
2022/05/17 00:23:47;;;;;;;1.20;1.00;;;23.40;99.90;;;;;;5094978;28;20304;-74
2022/05/17 00:26:15;;;;;;;5.53;1.25;;;23.40;99.90;;;;;;5094843;28;20249;-74
2022/05/17 00:28:43;;;;;;;3.92;1.23;;;23.40;99.90;;;;;;5094940;28;20640;-74
2022/05/17 00:31:10;;;;;;;3.33;1.25;;;23.40;99.90;;;;;;5094872;28;20253;-74
2022/05/17 00:33:37;;;;;;;1.55;1.45;;;23.40;99.90;;;;;;5094849;28;20224;-74
2022/05/17 00:36:04;;;;;;;1.52;1.23;;;23.40;99.90;;;;;;5094690;28;20349;-74
2022/05/17 00:38:31;;;;;;;2.28;1.27;;;23.40;99.90;;;;;;5094401;28;20213;-74
2022/05/17 00:40:58;;;;;;;1.00;1.00;;;23.40;99.90;;;;;;5094718;28;20250;-74
2022/05/17 00:44:42;;;;;;;1.13;0.90;;;23.40;99.90;;;;;;5094379;28;20228;-74
2022/05/17 00:46:21;;;;;;;1.33;1.23;;;23.40;99.90;;;;;;5093966;28;20245;-74
2022/05/17 00:48:48;;;;;;;2.53;1.30;;;23.40;99.90;;;;;;5094528;28;20220;-74
2022/05/17 00:51:15;;;;;;;1.10;0.98;;;23.40;99.90;;;;;;5094111;28;20213;-74
2022/05/17 00:53:42;;;;;;;2.65;1.60;;;23.40;99.90;;;;;;5093556;28;20624;-74
2022/05/17 00:56:13;;;;;;;1.85;1.00;;;23.40;99.90;;;;;;5094061;28;20231;-74
2022/05/17 00:58:44;;;;;;;3.03;1.02;;;23.40;99.90;;;;;;5094444;28;20191;-74
2022/05/17 01:01:14;;;;;;;3.60;1.10;;;23.40;99.90;;;;;;5093981;28;20666;-74
2022/05/17 01:03:47;;;;;;;3.53;1.20;;;23.40;99.90;;;;;;5093762;28;20224;-74
2022/05/17 01:06:16;;;;;;;4.53;1.52;;;23.40;99.90;;;;;;5094280;28;20245;-75
2022/05/17 01:08:42;;;;;;;2.05;1.20;;;23.40;99.90;;;;;;5093686;28;20216;-75
2022/05/17 01:11:09;;;;;;;2.00;1.30;;;23.40;99.90;;;;;;5094154;28;20302;-75
2022/05/17 01:16:24;;;;;;;5.10;1.50;;;23.40;99.90;;;;;;5093852;28;20710;-75
2022/05/17 01:18:52;;;;;;;5.80;1.05;;;23.40;99.90;;;;;;5093665;28;20218;-75
2022/05/17 01:21:20;;;;;;;0.90;0.90;;;23.40;99.90;;;;;;5093605;28;20221;-75
2022/05/17 01:23:47;;;;;;;4.60;1.33;;;23.40;99.90;;;;;;5093847;28;20217;-75
2022/05/17 01:26:20;;;;;;;2.45;1.20;;;23.40;99.90;;;;;;5094749;28;20245;-75
2022/05/17 01:28:48;;;;;;;1.58;1.05;;;23.40;99.90;;;;;;5093429;28;20213;-75
2022/05/17 01:31:16;;;;;;;1.75;1.38;;;23.40;99.90;;;;;;5093915;28;20218;-75
2022/05/17 01:33:43;;;;;;;4.40;1.27;;;23.40;99.90;;;;;;5093857;28;20217;-75
2022/05/17 01:36:13;;;;;;;3.60;1.10;;;23.40;99.90;;;;;;5093705;28;20234;-75
2022/05/17 01:38:45;;;;;;;1.70;1.60;;;23.40;99.90;;;;;;5093773;28;20317;-75
2022/05/17 01:41:12;;;;;;;3.08;1.10;;;23.40;99.90;;;;;;5080076;22;20272;-78
2022/05/17 01:43:40;;;;;;;1.38;1.00;;;23.40;99.90;;;;;;5033021;28;20702;-78
2022/05/17 01:46:08;;;;;;;2.38;1.25;;;23.40;99.90;;;;;;5034165;28;20333;-78
2022/05/17 01:48:35;;;;;;;2.15;1.63;;;23.40;99.90;;;;;;5034800;28;20675;-78
2022/05/17 01:51:02;;;;;;;1.30;1.20;;;23.40;99.90;;;;;;5034399;28;20263;-78
2022/05/17 01:53:29;;;;;;;2.30;1.35;;;23.40;99.90;;;;;;5034496;28;20222;-78
2022/05/17 01:55:57;;;;;;;4.85;1.13;;;23.40;99.90;;;;;;5033256;28;20661;-78
2022/05/17 01:58:24;;;;;;;2.83;1.60;;;23.40;99.90;;;;;;5033339;28;20223;-78
2022/05/17 02:00:51;;;;;;;1.42;1.33;;;23.30;99.90;;;;;;5033539;28;20275;-78
2022/05/17 02:03:18;;;;;;;1.48;1.10;;;23.30;99.90;;;;;;5033671;28;20222;-78
2022/05/17 02:05:45;;;;;;;1.75;1.15;;;23.40;99.90;;;;;;5036083;28;20244;-78
2022/05/17 02:08:12;;;;;;;1.15;1.00;;;23.40;99.90;;;;;;5039448;28;20246;-78
2022/05/17 02:10:39;;;;;;;1.00;1.00;;;23.30;99.90;;;;;;5037972;28;20752;-78
2022/05/17 02:13:07;;;;;;;5.35;1.40;;;23.30;99.90;;;;;;5038272;28;20280;-78
2022/05/17 02:15:34;;;;;;;2.60;1.20;;;23.40;99.90;;;;;;5038148;28;20225;-78
2022/05/17 02:18:01;;;;;;;1.08;0.98;;;23.30;99.90;;;;;;5037871;28;20256;-78
2022/05/17 02:20:29;;;;;;;3.28;1.30;;;23.30;99.90;;;;;;5037509;28;20733;-78
2022/05/17 02:22:56;;;;;;;4.22;1.23;;;23.40;99.90;;;;;;5037913;28;20309;-78
2022/05/17 02:25:23;;;;;;;1.88;1.13;;;23.40;99.90;;;;;;5037499;28;20230;-78
2022/05/17 02:27:50;;;;;;;0.80;0.80;;;23.40;99.90;;;;;;5037311;28;20241;-78
2022/05/17 02:30:18;;;;;;;1.40;1.30;;;23.40;99.90;;;;;;5037038;28;20249;-78
2022/05/17 02:32:45;;;;;;;2.38;1.08;;;23.40;99.90;;;;;;5036976;28;20584;-78
2022/05/17 02:35:13;;;;;;;1.30;1.20;;;23.40;99.90;;;;;;5036974;28;20297;-78
2022/05/17 02:37:41;;;;;;;4.00;1.20;;;23.40;99.90;;;;;;5036875;28;20223;-78
2022/05/17 02:40:10;;;;;;;2.88;1.20;;;23.40;99.90;;;;;;5036625;28;20212;-78
2022/05/17 02:42:37;;;;;;;3.33;1.30;;;23.40;99.90;;;;;;5036884;28;20256;-78
2022/05/17 02:45:05;;;;;;;2.58;1.20;;;23.40;99.90;;;;;;5037326;28;20245;-78
2022/05/17 02:47:34;;;;;;;2.03;1.25;;;23.40;99.90;;;;;;5037406;28;20715;-78
2022/05/17 02:50:01;;;;;;;2.05;1.02;;;23.40;99.90;;;;;;5037398;28;20224;-79
2022/05/17 02:52:28;;;;;;;6.28;1.63;;;23.30;99.90;;;;;;5036998;28;20213;-78
2022/05/17 02:54:55;;;;;;;3.53;1.52;;;23.40;99.90;;;;;;5036959;28;20770;-78
2022/05/17 02:57:22;;;;;;;5.10;1.40;;;23.40;99.90;;;;;;5036613;28;20680;-78
2022/05/17 02:59:48;;;;;;;1.55;1.27;;;23.30;99.90;;;;;;5036860;28;20258;-78
2022/05/17 03:02:15;;;;;;;1.85;0.90;;;23.40;99.90;;;;;;5036969;28;20302;-78
2022/05/17 03:04:43;;;;;;;1.00;1.00;;;23.30;99.90;;;;;;5036860;28;20249;-79
2022/05/17 03:07:10;;;;;;;1.10;1.10;;;23.40;99.90;;;;;;5037108;28;20321;-78
2022/05/17 03:09:37;;;;;;;5.47;1.27;;;23.30;99.90;;;;;;5036742;28;20310;-78
2022/05/17 03:12:05;;;;;;;1.20;1.20;;;23.30;99.90;;;;;;5036278;28;20326;-78
2022/05/17 03:14:32;;;;;;;1.48;1.02;;;23.40;99.90;;;;;;5036568;28;20304;-78
2022/05/17 03:16:59;;;;;;;5.10;1.10;;;23.30;99.90;;;;;;5036348;28;20218;-78
2022/05/17 03:19:25;;;;;;;2.25;1.17;;;23.30;99.90;;;;;;5036441;28;20220;-78
2022/05/17 03:21:54;;;;;;;3.13;1.40;;;23.30;99.90;;;;;;5035983;28;20239;-77
2022/05/17 03:24:20;;;;;;;2.15;1.10;;;23.40;99.90;;;;;;5036749;28;20302;-78
2022/05/17 03:26:47;;;;;;;0.85;0.85;;;23.30;99.90;;;;;;5035781;28;20656;-78
2022/05/17 03:29:14;;;;;;;5.07;1.02;;;23.30;99.90;;;;;;5035714;28;20226;-78
2022/05/17 03:31:41;;;;;;;1.88;1.10;;;23.30;99.90;;;;;;5036020;28;20271;-78
2022/05/17 03:34:09;;;;;;;5.95;1.40;;;23.30;99.90;;;;;;5036714;28;20256;-78
2022/05/17 03:36:36;;;;;;;1.00;1.00;;;23.30;99.90;;;;;;5036058;28;20691;-78
2022/05/17 03:39:23;;;;;;;0.90;0.90;;;23.30;99.90;;;;;;5041404;28;20217;-78
2022/05/17 03:41:50;;;;;;;2.47;1.33;;;23.40;99.90;;;;;;5039059;28;20346;-78
2022/05/17 03:44:17;;;;;;;4.38;1.27;;;23.30;99.90;;;;;;5036300;28;20224;-79
2022/05/17 03:46:44;;;;;;;2.38;1.08;;;23.30;99.90;;;;;;5037129;28;20236;-79
2022/05/17 03:49:11;;;;;;;1.00;1.00;;;23.30;99.90;;;;;;5036750;28;20304;-79
2022/05/17 03:51:39;;;;;;;4.93;1.35;;;23.30;99.90;;;;;;5035691;28;20799;-78
2022/05/17 03:54:07;;;;;;;4.57;1.20;;;23.30;99.90;;;;;;5035837;28;20299;-77
2022/05/17 03:56:35;;;;;;;0.98;0.98;;;23.30;99.90;;;;;;5035468;28;20222;-77
2022/05/17 03:59:02;;;;;;;1.83;1.10;;;23.30;99.90;;;;;;5035606;28;20310;-78
2022/05/17 04:01:29;;;;;;;1.98;1.02;;;23.30;99.90;;;;;;5036643;28;20241;-79
2022/05/17 04:03:56;;;;;;;4.43;1.20;;;23.30;99.90;;;;;;5035908;28;20245;-78
2022/05/17 04:06:22;;;;;;;1.75;1.13;;;23.30;99.90;;;;;;5035993;28;20238;-78
2022/05/17 04:08:50;;;;;;;2.95;1.48;;;23.30;99.90;;;;;;5035512;28;20675;-78
2022/05/17 04:11:17;;;;;;;8.63;1.50;;;23.30;99.90;;;;;;5035978;28;20241;-79
2022/05/17 04:13:45;;;;;;;6.88;1.23;;;23.30;99.90;;;;;;5036868;28;20219;-81
2022/05/17 04:16:12;;;;;;;7.72;1.20;;;23.30;99.90;;;;;;5036736;28;20214;-81
2022/05/17 04:18:39;;;;;;;5.47;1.35;;;23.30;99.90;;;;;;5038136;28;20243;-81
2022/05/17 04:21:07;;;;;;;2.28;1.13;;;23.30;99.90;;;;;;5038542;28;20328;-81
2022/05/17 04:23:34;;;;;;;3.17;1.00;;;23.30;99.90;;;;;;5037420;28;20227;-81
2022/05/17 04:26:01;;;;;;;3.72;1.05;;;23.30;99.90;;;;;;5036733;28;20279;-78
2022/05/17 04:28:28;;;;;;;11.18;1.40;;;23.30;99.90;;;;;;5035277;28;20249;-79
2022/05/17 04:30:57;;;;;;;2.25;1.10;;;23.30;99.90;;;;;;5035726;28;20248;-79
2022/05/17 04:33:24;;;;;;;3.90;1.10;;;23.30;99.90;;;;;;5036165;28;20211;-79
2022/05/17 04:35:51;;;;;;;2.28;1.23;;;23.20;99.90;;;;;;5035748;28;20227;-79
2022/05/17 04:38:18;;;;;;;3.88;1.50;;;23.20;99.90;;;;;;5036061;28;20212;-79
2022/05/17 04:40:45;;;;;;;5.53;1.40;;;23.10;99.90;;;;;;5035699;28;20272;-78
2022/05/17 04:43:13;;;;;;;3.78;1.30;;;23.10;99.90;;;;;;5035621;28;20298;-79
2022/05/17 04:45:41;;;;;;;22.38;2.22;;;23.10;99.90;;;;;;5036139;28;20213;-78
2022/05/17 04:48:10;;;;;;;11.93;1.65;;;23.00;99.90;;;;;;5036277;28;20237;-82
2022/05/17 04:50:38;;;;;;;7.00;1.80;;;23.00;99.90;;;;;;5036798;28;20275;-85
2022/05/17 04:53:06;;;;;;;29.20;2.42;;;23.00;99.90;;;;;;5037085;28;20307;-82
2022/05/17 04:55:33;;;;;;;17.80;1.92;;;23.00;99.90;;;;;;5036466;28;20578;-81
2022/05/17 04:58:00;;;;;;;8.23;1.48;;;23.00;99.90;;;;;;5037262;28;20318;-82
2022/05/17 05:00:27;;;;;;;5.15;1.20;;;23.00;99.90;;;;;;5035161;28;20660;-85
2022/05/17 05:02:55;;;;;;;6.38;1.50;;;23.00;99.90;;;;;;5035739;28;20254;-81
2022/05/17 05:05:23;;;;;;;;;;;23.00;99.90;;;;;;5037156;28;20212;-82
2022/05/17 05:07:50;;;;;;;;;;;23.00;99.90;;;;;;5036887;28;19968;-84
2022/05/17 05:10:17;;;;;;;;;;;22.90;99.90;;;;;;5036818;28;19956;-82
2022/05/17 05:12:44;;;;;;;;;;;22.80;99.90;;;;;;5041206;28;19979;-82
2022/05/17 05:15:11;;;;;;;;;;;22.80;99.90;;;;;;5036739;28;20012;-82
2022/05/17 05:17:38;;;;;;;;;;;22.80;99.90;;;;;;5035855;28;19921;-79
2022/05/17 05:20:05;;;;;;;;;;;22.80;99.90;;;;;;5035833;28;19921;-79
2022/05/17 05:22:34;;;;;;;;;;;22.80;99.90;;;;;;5035925;28;19921;-79
2022/05/17 05:25:00;;;;;;;;;;;22.80;99.90;;;;;;5036056;28;20323;-79
2022/05/17 05:27:31;;;;;;;;;;;22.80;99.90;;;;;;5038433;28;19921;-79
2022/05/17 05:29:57;;;;;;;;;;;22.80;99.90;;;;;;5038608;28;19921;-79
2022/05/17 05:32:24;;;;;;;;;;;22.80;99.90;;;;;;5035145;28;19927;-77
2022/05/17 05:34:50;;;;;;;;;;;22.70;99.90;;;;;;5034246;28;19921;-76
2022/05/17 05:37:17;;;;;;;;;;;22.70;99.90;;;;;;5034212;28;19928;-76
2022/05/17 05:39:45;;;;;;;;;;;22.70;99.90;;;;;;5033980;28;19927;-76
2022/05/17 05:42:12;;;;;;;;;;;22.70;99.90;;;;;;5033711;28;19927;-76
2022/05/17 05:44:38;;;;;;;;;;;22.70;99.90;;;;;;5034125;28;20012;-76
2022/05/17 05:47:05;;;;;;;;;;;22.80;99.90;;;;;;5034009;28;19921;-76
2022/05/17 05:49:32;;;;;;;;;;;22.70;99.90;;;;;;5034017;28;19927;-76
2022/05/17 05:51:59;;;;;;;;;;;22.70;99.90;;;;;;5033928;28;19921;-76
2022/05/17 05:54:25;;;;;;;;;;;22.70;99.90;;;;;;5033982;28;19931;-76
2022/05/17 05:56:53;;;;;;;;;;;22.70;99.90;;;;;;5033626;28;19921;-76
2022/05/17 05:59:20;;;;;;;;;;;22.70;99.90;;;;;;5033866;28;19943;-76
2022/05/17 06:01:47;;;;;;;;;;;22.70;99.90;;;;;;5033860;28;19927;-77
2022/05/17 06:04:13;;;;;;;;;;;22.70;99.90;;;;;;5033846;28;19956;-77
2022/05/17 06:06:42;;;;;;;;;;;22.70;99.90;;;;;;5033748;28;19921;-77
2022/05/17 06:09:08;;;;;;;;;;;22.70;99.90;;;;;;5033810;28;19925;-77
2022/05/17 06:11:35;;;;;;;;;;;22.70;99.90;;;;;;5033760;28;19921;-77
2022/05/17 06:14:03;;;;;;;;;;;22.70;99.90;;;;;;5033761;28;19975;-77
2022/05/17 06:16:30;;;;;;;;;;;22.70;99.90;;;;;;5033784;28;20279;-77
2022/05/17 06:18:57;;;;;;;;;;;22.70;99.90;;;;;;5033767;28;20007;-77
2022/05/17 06:21:24;;;;;;;;;;;22.70;99.90;;;;;;5033643;28;20047;-77
2022/05/17 06:23:51;;;;;;;;;;;22.70;99.90;;;;;;5033700;28;19927;-77
2022/05/17 06:26:17;;;;;;;;;;;22.70;99.90;;;;;;5033645;28;19960;-77
2022/05/17 06:28:44;;;;;;;;;;;22.70;99.90;;;;;;5033536;28;20012;-76
2022/05/17 06:31:12;;;;;;;;;;;22.70;99.90;;;;;;5033551;28;19921;-76
2022/05/17 06:33:39;;;;;;;;;;;22.70;99.90;;;;;;5033299;28;19928;-76
2022/05/17 06:36:06;;;;;;;;;;;22.70;99.90;;;;;;5033579;28;19925;-76
2022/05/17 06:38:32;;;;;;;;;;;22.70;99.90;;;;;;5033227;28;19920;-76
2022/05/17 06:40:59;;;;;;;;;;;22.70;99.90;;;;;;5033210;28;19921;-76
2022/05/17 06:43:27;;;;;;;;;;;22.70;99.90;;;;;;5033485;28;19931;-76
2022/05/17 06:45:54;;;;;;;;;;;22.70;99.90;;;;;;5033489;28;20004;-76
2022/05/17 06:48:22;;;;;;;;;;;22.70;99.90;;;;;;5033430;28;19976;-76
2022/05/17 06:50:48;;;;;;;;;;;22.70;99.90;;;;;;5033392;28;19943;-76
2022/05/17 06:53:15;;;;;;;;;;;22.70;99.90;;;;;;5037049;28;19961;-76
2022/05/17 06:55:42;;;;;;;;;;;22.70;99.90;;;;;;5037032;28;20008;-76
2022/05/17 06:58:09;;;;;;;;;;;22.70;99.90;;;;;;5036621;28;19924;-76
2022/05/17 07:00:35;;;;;;;;;;;22.70;99.90;;;;;;5036531;28;20299;-76
2022/05/17 07:03:02;;;;;;;;;;;22.70;99.90;;;;;;5036633;28;20376;-76
2022/05/17 07:05:30;;;;;;;;;;;22.70;99.90;;;;;;5036605;28;19921;-76
2022/05/17 07:08:00;;;;;;;;;;;22.70;99.90;;;;;;5036470;28;20026;-77
2022/05/17 07:13:12;;;;;;;;;;;22.70;99.90;;;;;;5036498;28;20289;-77
2022/05/17 07:15:41;;;;;;;;;;;22.70;99.90;;;;;;5036647;28;19921;-77
2022/05/17 07:18:08;;;;;;;;;;;22.70;99.90;;;;;;5036606;28;19921;-77
2022/05/17 07:20:36;;;;;;;;;;;22.70;99.90;;;;;;5036542;28;19928;-77
2022/05/17 07:23:04;;;;;;;;;;;22.70;99.90;;;;;;5036819;28;19921;-77
2022/05/17 07:25:31;;;;;;;;;;;22.70;99.90;;;;;;5037595;28;19964;-79
2022/05/17 07:27:58;;;;;;;;;;;22.70;99.90;;;;;;5045722;28;19928;-79
2022/05/17 07:30:24;;;;;;;;;;;22.70;99.90;;;;;;5048657;28;19921;-79
2022/05/17 07:32:51;;;;;;;;;;;22.70;99.90;;;;;;5048012;28;19980;-79
2022/05/17 07:35:18;;;;;;;;;;;22.70;99.90;;;;;;5048220;28;19930;-79
2022/05/17 07:37:46;;;;;;;;;;;22.70;99.90;;;;;;5047778;28;19980;-79
2022/05/17 07:40:13;;;;;;;;;;;22.70;99.90;;;;;;5047915;28;19921;-79
2022/05/17 07:42:40;;;;;;;;;;;22.70;99.90;;;;;;5041549;28;20016;-79
2022/05/17 07:45:07;;;;;;;;;;;22.70;99.90;;;;;;5040438;28;19932;-79
2022/05/17 07:47:34;;;;;;;;;;;22.70;99.90;;;;;;5040641;28;19921;-79
2022/05/17 07:50:01;;;;;;;;;;;22.70;99.90;;;;;;5039970;28;19925;-79
2022/05/17 07:52:28;;;;;;;;;;;22.70;99.90;;;;;;5038675;28;19920;-79
2022/05/17 07:54:56;;;;;;;;;;;22.70;99.90;;;;;;5038567;28;19927;-79
2022/05/17 07:57:23;;;;;;;;;;;22.70;99.90;;;;;;5038442;28;19921;-79
2022/05/17 07:59:50;;;;;;;;;;;22.70;99.90;;;;;;5038648;28;19967;-79
2022/05/17 08:02:17;;;;;;;;;;;22.70;99.90;;;;;;5037492;28;20388;-79
2022/05/17 08:04:43;;;;;;;;;;;22.70;99.90;;;;;;5038295;28;19928;-79
2022/05/17 08:07:10;;;;;;;;;;;22.70;99.90;;;;;;5038062;28;20004;-79
2022/05/17 08:09:37;;;;;;;;;;;22.70;99.90;;;;;;5038241;28;19931;-79
2022/05/17 08:12:07;;;;;;;;;;;22.70;99.90;;;;;;5038805;28;19921;-79
2022/05/17 08:14:34;;;;;;;;;;;22.70;99.90;;;;;;5038898;28;19921;-79
2022/05/17 08:17:01;;;;;;;;;;;22.70;99.90;;;;;;5037997;28;19921;-79
2022/05/17 08:19:28;;;;;;;;;;;22.70;99.90;;;;;;5037735;28;19927;-79
2022/05/17 08:21:55;;;;;;;;;;;22.70;99.90;;;;;;5037420;28;19921;-79
2022/05/17 08:24:22;;;;;;;;;;;22.70;99.90;;;;;;5037675;28;19921;-79
2022/05/17 08:29:34;;;;;;;;;;;22.70;99.90;;;;;;5037448;28;19992;-79
2022/05/17 08:35:03;;;;;;;;;;;22.70;99.90;;;;;;4995890;28;19918;-79
2022/05/17 08:37:29;;;;;;;;;;;22.70;99.90;;;;;;4995660;28;19922;-79
2022/05/17 08:39:56;;;;;;;;;;;22.70;99.90;;;;;;5014530;28;20380;-79
2022/05/17 08:42:25;;;;;;;;;;;22.70;99.90;;;;;;5036708;28;20341;-80
2022/05/17 08:44:57;;;;;;;;;;;22.70;99.90;;;;;;5037223;28;19928;-79
2022/05/17 08:47:27;;;;;;;;;;;22.70;99.90;;;;;;5037024;28;20411;-79
2022/05/17 08:49:56;;;;;;;;;;;22.70;99.90;;;;;;5037673;28;19921;-79
2022/05/17 08:52:24;;;;;;;;;;;22.70;99.90;;;;;;5037331;28;19921;-79
2022/05/17 08:54:53;;;;;;;;;;;22.70;99.90;;;;;;5037899;28;19929;-79
2022/05/17 08:57:22;;;;;;;;;;;22.70;99.90;;;;;;5036985;28;19921;-79
2022/05/17 08:59:49;;;;;;;;;;;22.70;99.90;;;;;;5037174;28;19921;-79
2022/05/17 09:02:19;;;;;;;;;;;22.70;99.90;;;;;;5036939;28;19928;-79
2022/05/17 09:04:50;;;;;;;;;;;22.80;99.90;;;;;;5037261;28;19921;-79
2022/05/17 09:07:21;;;;;;;;;;;22.80;99.90;;;;;;5037054;28;19976;-79
2022/05/17 09:09:56;;;;;;;;;;;22.70;99.90;;;;;;5036947;28;19928;-79
2022/05/17 09:12:25;;;;;;;;;;;22.80;99.90;;;;;;5037270;28;19921;-79
2022/05/17 09:14:53;;;;;;;;;;;22.80;99.90;;;;;;5035901;28;19928;-79
2022/05/17 09:17:24;;;;;;;;;;;22.80;99.90;;;;;;5037102;28;19921;-79
2022/05/17 09:19:51;;;;;;;;;;;22.80;99.90;;;;;;5036528;28;19994;-79
2022/05/17 09:22:18;;;;;;;;;;;22.80;99.90;;;;;;5036840;28;19967;-79
2022/05/17 09:24:46;;;;;;;;;;;22.80;99.90;;;;;;5036713;28;19925;-79
2022/05/17 09:27:22;;;;;;;;;;;22.80;99.90;;;;;;5036547;28;19921;-79
2022/05/17 09:29:50;;;;;;;;;;;22.80;99.90;;;;;;5036247;28;19921;-79
2022/05/17 09:32:24;;;;;;;;;;;22.80;99.90;;;;;;5036023;28;19925;-79
2022/05/17 09:34:58;;;;;;;;;;;22.80;99.90;;;;;;5036956;28;19928;-79
2022/05/17 09:37:31;;;;;;;;;;;22.80;99.90;;;;;;5036810;28;19927;-79
2022/05/17 09:39:57;;;;;;;;;;;22.80;99.90;;;;;;5036545;28;20288;-79
2022/05/17 09:42:26;;;;;;;;;;;22.80;99.90;;;;;;5036427;28;20007;-79
2022/05/17 09:44:56;;;;;;;;;;;22.80;99.90;;;;;;5036719;28;19928;-79
2022/05/17 09:47:28;;;;;;;;;;;22.80;99.90;;;;;;5036955;28;19943;-79
2022/05/17 09:52:44;;;;;;;;;;;22.80;99.90;;;;;;5036613;28;20063;-79
2022/05/17 09:55:21;;;;;;;;;;;22.80;99.90;;;;;;5036336;28;19928;-79
2022/05/17 09:57:52;;;;;;;;;;;22.80;99.90;;;;;;5036951;28;20399;-79
2022/05/17 10:00:22;;;;;;;;;;;22.80;99.90;;;;;;5036087;28;20358;-79
2022/05/17 10:02:50;;;;;;;;;;;22.80;99.90;;;;;;5036579;28;20324;-79
2022/05/17 10:05:21;;;;;;;;;;;22.80;99.90;;;;;;5036562;28;19925;-79
2022/05/17 10:07:52;;;;;;;;;;;22.80;99.90;;;;;;5036413;28;19927;-79
2022/05/17 10:10:23;;;;;;;;;;;22.80;99.90;;;;;;5036220;28;19921;-79
2022/05/17 10:12:52;;;;;;;;;;;22.80;99.90;;;;;;5036478;28;20364;-79
2022/05/17 10:15:20;;;;;;;;;;;22.80;99.90;;;;;;5035269;28;20376;-77
2022/05/17 10:17:49;;;;;;;;;;;22.80;99.90;;;;;;5033468;28;20399;-77
2022/05/17 10:20:18;;;;;;;;;;;22.80;99.90;;;;;;5033671;28;19928;-77
2022/05/17 10:22:52;;;;;;;;;;;22.80;99.90;;;;;;5033415;28;19960;-77
2022/05/17 10:25:23;;;;;;;;;;;22.80;99.90;;;;;;5033714;28;19921;-77
2022/05/17 10:27:51;;;;;;;;;;;22.80;99.90;;;;;;5036956;28;19921;-77
2022/05/17 10:30:20;;;;;;;;;;;22.90;99.90;;;;;;5037354;28;19921;-77
2022/05/17 10:32:51;;;;;;;;;;;22.90;99.90;;;;;;5037479;28;19931;-77
2022/05/17 10:35:19;;;;;;;;;;;22.90;99.90;;;;;;5037166;28;20376;-77
2022/05/17 10:37:52;;;;;;;;;;;22.90;99.90;;;;;;5037368;28;19927;-77
2022/05/17 10:40:20;;;;;;;;;;;22.90;99.90;;;;;;5037073;28;19921;-77
2022/05/17 10:42:47;;;;;;;;;;;22.90;99.90;;;;;;5037003;28;19925;-77
2022/05/17 10:45:18;;;;;;;;;;;22.90;99.90;;;;;;5036921;28;20027;-77
2022/05/17 10:47:47;;;;;;;;;;;22.90;99.90;;;;;;5036985;28;20365;-77
2022/05/17 10:50:26;;;;;;;;;;;22.90;99.90;;;;;;5037022;28;19964;-77
2022/05/17 10:52:58;;;;;;;;;;;22.90;99.90;;;;;;5037215;28;19921;-77
2022/05/17 10:55:28;;;;;;;;;;;22.80;99.90;;;;;;5037267;28;20376;-77
2022/05/17 10:57:58;;;;;;;;;;;22.90;99.90;;;;;;5036734;28;20291;-77
2022/05/17 11:00:27;;;;;;;;;;;22.90;99.90;;;;;;5036983;28;20012;-77
2022/05/17 11:03:12;;;;;;;;;;;22.90;99.90;;;;;;5036642;28;20372;-77
2022/05/17 11:05:45;;;;;;;;;;;22.90;99.90;;;;;;5036654;28;19921;-77
2022/05/17 11:08:19;;;;;;;;;;;22.80;99.90;;;;;;5036822;28;20406;-77
2022/05/17 11:10:50;;;;;;;;;;;22.90;99.90;;;;;;5037019;28;20276;-77
2022/05/17 11:13:21;;;;;;;;;;;22.90;99.90;;;;;;5037298;28;20020;-77
2022/05/17 11:15:52;;;;;;;;;;;22.90;99.90;;;;;;5036725;28;19928;-77
2022/05/17 11:18:22;;;;;;;;;;;22.90;99.90;;;;;;5036711;28;19921;-77
2022/05/17 11:20:53;;;;;;;;;;;22.90;99.90;;;;;;5036340;28;20273;-77
2022/05/17 11:23:31;;;;;;;;;;;22.90;99.90;;;;;;5036536;28;19928;-77
2022/05/17 11:26:05;;;;;;;;;;;22.90;99.90;;;;;;5036519;28;19921;-77
2022/05/17 11:28:40;;;;;;;;;;;22.90;99.90;;;;;;5036481;28;19921;-77
2022/05/17 11:31:08;;;;;;;;;;;22.90;99.90;;;;;;5038893;28;19921;-77
2022/05/17 11:33:39;;;;;;;;;;;22.90;99.90;;;;;;5037924;28;20004;-77
2022/05/17 11:36:07;;;;;;;;;;;22.90;99.90;;;;;;5039711;28;19928;-77
2022/05/17 11:38:46;;;;;;;;;;;22.90;99.90;;;;;;5037908;28;20262;-77
2022/05/17 11:41:17;;;;;;;;;;;22.90;99.90;;;;;;5036325;28;19921;-79
2022/05/17 11:43:59;;;;;;;;;;;22.90;99.90;;;;;;5041070;28;20007;-79
2022/05/17 11:46:54;;;;;;;;;;;22.90;99.90;;;;;;5040152;28;19928;-79
2022/05/17 11:49:28;;;;;;;;;;;22.90;99.90;;;;;;5039565;28;19921;-79
2022/05/17 11:52:16;;;;;;;;;;;22.90;99.90;;;;;;5042735;28;19924;-79
2022/05/17 11:54:45;;;;;;;;;;;22.90;99.90;;;;;;5039834;28;19940;-78
2022/05/17 11:57:17;;;;;;;;;;;22.90;99.90;;;;;;5043059;28;19921;-78
2022/05/17 11:59:46;;;;;;;;;;;22.90;99.90;;;;;;5044194;28;20365;-78
2022/05/17 12:02:14;;;;;;;;;;;22.90;99.90;;;;;;5043938;28;19921;-78
2022/05/17 12:04:43;;;;;;;;;;;22.90;99.90;;;;;;5042940;28;19927;-78
2022/05/17 12:07:30;;;;;;;;;;;22.90;99.90;;;;;;5044369;28;19928;-78
2022/05/17 12:10:09;;;;;;;;;;;22.90;99.90;;;;;;5043931;28;19986;-78
2022/05/17 12:12:48;;;;;;;;;;;22.90;99.90;;;;;;5040768;28;20439;-79
2022/05/17 12:15:23;;;;;;;;;;;22.90;99.90;;;;;;5042590;28;19990;-77
2022/05/17 12:17:58;;;;;;;;;;;22.90;99.90;;;;;;5044054;28;19921;-77
2022/05/17 12:20:28;;;;;;;;;;;22.90;99.90;;;;;;5042520;28;19998;-78
2022/05/17 12:22:57;;;;;;;;;;;22.90;99.90;;;;;;5041846;28;19963;-78
2022/05/17 12:25:29;;;;;;;;;;;22.90;99.90;;;;;;5041880;28;20020;-78
2022/05/17 12:27:56;;;;;;;;;;;22.90;99.90;;;;;;5042184;28;19921;-78
2022/05/17 12:33:11;;;;;;;;;;;22.90;99.90;;;;;;5043541;28;19924;-77
2022/05/17 12:35:41;;;;;;;;;;;22.90;99.90;;;;;;5042593;28;19964;-78
2022/05/17 12:43:02;;;;;;;;;;;22.90;99.90;;;;;;5043008;28;19999;-78
2022/05/17 12:43:48;;;;;;;;;;;22.90;99.90;;;;;;5041214;28;19928;-78
2022/05/17 12:46:22;;;;;;;;;;;22.90;99.90;;;;;;5042158;28;19921;-78
2022/05/17 12:48:50;;;;;;;;;;;22.90;99.90;;;;;;5041278;28;19925;-78
2022/05/17 12:51:18;;;;;;;;;;;22.90;99.90;;;;;;5041620;28;19921;-78
2022/05/17 12:53:46;;;;;;;;;;;22.90;99.90;;;;;;5041538;28;19921;-78
2022/05/17 12:56:32;;;;;;;;;;;22.90;99.90;;;;;;5040242;28;19921;-78
2022/05/17 12:59:00;;;;;;;;;;;23.00;99.90;;;;;;5040917;28;19924;-78
2022/05/17 13:01:29;;;;;;;;;;;22.90;99.90;;;;;;5040848;28;19981;-78
2022/05/17 13:03:57;;;;;;;;;;;22.90;99.90;;;;;;5042171;28;19979;-78
2022/05/17 13:06:33;;;;;;;;;;;22.90;99.90;;;;;;5041778;28;19921;-77
2022/05/17 13:09:03;;;;;;;;;;;22.90;99.90;;;;;;5041506;28;19928;-78
2022/05/17 13:11:32;;;;;;;;;;;22.90;99.90;;;;;;5042984;28;19921;-79
2022/05/17 13:13:59;;;;;;;;;;;22.90;99.90;;;;;;5041037;28;19925;-78
2022/05/17 13:16:28;;;;;;;;;;;22.90;99.90;;;;;;5042390;28;19921;-78
2022/05/17 13:18:56;;;;;;;;;;;22.90;99.90;;;;;;5040535;28;19921;-79
2022/05/17 13:21:24;;;;;;;;;;;22.90;99.90;;;;;;5037140;28;19921;-79
2022/05/17 13:23:52;;;;;;;;;;;22.90;99.90;;;;;;5036121;28;19925;-79
2022/05/17 13:26:22;;;;;;;;;;;23.00;99.90;;;;;;5035176;28;19925;-79
2022/05/17 13:28:51;;;;;;;;;;;23.00;99.90;;;;;;5035738;28;20011;-79
2022/05/17 13:31:20;;;;;;;;;;;23.00;99.90;;;;;;5035613;28;19982;-79
2022/05/17 13:33:53;;;;;;;;;;;23.00;99.90;;;;;;5036027;28;20012;-79
2022/05/17 13:36:31;;;;;;;;;;;23.00;99.90;;;;;;5035751;28;19943;-79
2022/05/17 13:39:00;;;;;;;;;;;23.00;99.90;;;;;;5035532;28;20027;-79
2022/05/17 13:41:32;;;;;;;;;;;23.00;99.90;;;;;;5059648;22;19928;-80
2022/05/17 13:44:01;;;;;;;;;;;23.00;99.90;;;;;;5033437;28;19921;-80
2022/05/17 13:46:33;;;;;;;;;;;23.00;99.90;;;;;;5034173;28;20346;-79
2022/05/17 13:49:06;;;;;;;;;;;23.00;99.90;;;;;;5033874;28;19921;-79
2022/05/17 13:51:37;;;;;;;;;;;23.00;99.90;;;;;;5032752;28;20368;-79
2022/05/17 13:54:06;;;;;;;;;;;23.00;99.90;;;;;;5034260;28;20280;-79
2022/05/17 13:56:35;;;;;;;;;;;23.00;99.90;;;;;;5036722;28;19921;-79
2022/05/17 13:59:04;;;;;;;;;;;23.00;99.90;;;;;;5035176;28;19943;-79
2022/05/17 14:01:35;;;;;;;;;;;23.00;99.90;;;;;;5038036;28;19981;-79
2022/05/17 14:04:06;;;;;;;;;;;23.00;99.90;;;;;;5039935;28;19925;-79
2022/05/17 14:06:42;;;;;;;;;;;23.00;99.90;;;;;;5039822;28;19921;-79
2022/05/17 14:11:55;;;;;;;;;;;23.00;99.90;;;;;;5039694;28;19928;-79
2022/05/17 14:14:24;;;;;;;;;;;23.00;99.90;;;;;;5039307;28;20360;-79